Time;durP1;ratioP1;P1;durP2;ratioP2;P2;SDS_P1;SDS_P2;PMS_P1;PMS_P2;Temp;Humidity;BMP_temperature;BMP_pressure;BME280_temperature;BME280_humidity;BME280_pressure;Samples;Min_cycle;Max_cycle;Signal;HPM_P1;HPM_P2
2022/06/02 00:01:15;;;;;;;5.00;3.50;;;13.00;71.60;;;;;;4993638;28;20038;-70
2022/06/02 00:03:53;;;;;;;4.15;3.08;;;13.00;71.00;;;;;;4993615;28;20027;-70
2022/06/02 00:06:37;;;;;;;3.45;2.80;;;13.20;70.30;;;;;;4992443;28;20109;-70
2022/06/02 00:09:17;;;;;;;4.00;3.30;;;13.30;69.90;;;;;;4993018;28;20388;-70
2022/06/02 00:11:45;;;;;;;5.38;2.95;;;13.40;69.70;;;;;;4993028;28;20030;-70
2022/06/02 00:14:23;;;;;;;3.35;2.97;;;13.40;69.60;;;;;;4993133;28;20391;-70
2022/06/02 00:17:24;;;;;;;3.03;2.55;;;13.50;69.40;;;;;;4993086;28;20369;-71
2022/06/02 00:20:31;;;;;;;3.07;2.57;;;13.60;69.00;;;;;;4991830;28;20033;-70
2022/06/02 00:23:27;;;;;;;2.58;2.38;;;13.60;68.60;;;;;;4992449;28;20176;-70
2022/06/02 00:26:30;;;;;;;2.58;2.38;;;13.60;68.60;;;;;;4992826;28;20030;-69
2022/06/02 00:29:38;;;;;;;3.88;3.38;;;13.70;68.20;;;;;;4990953;28;20033;-70
2022/06/02 00:32:22;;;;;;;3.90;2.90;;;13.70;68.40;;;;;;4992683;28;20030;-69
2022/06/02 00:35:24;;;;;;;5.15;3.50;;;13.60;68.30;;;;;;4991798;28;20015;-70
2022/06/02 00:37:57;;;;;;;4.60;3.25;;;13.50;68.50;;;;;;4991191;28;20034;-70
2022/06/02 00:40:25;;;;;;;3.83;3.00;;;13.20;69.10;;;;;;4992695;28;20030;-70
2022/06/02 00:42:59;;;;;;;3.40;2.63;;;13.00;69.80;;;;;;4992821;28;20030;-69
2022/06/02 00:45:25;;;;;;;3.80;3.05;;;13.00;70.20;;;;;;4992725;28;20400;-70
2022/06/02 00:48:06;;;;;;;3.70;3.25;;;12.90;70.50;;;;;;5026199;23;20041;-68
2022/06/02 00:51:03;;;;;;;4.13;3.50;;;12.90;70.70;;;;;;5031653;28;20476;-68
2022/06/02 00:53:37;;;;;;;5.15;3.92;;;12.90;70.80;;;;;;5031847;28;20036;-67
2022/06/02 00:59:45;;;;;;;3.35;3.00;;;13.00;71.20;;;;;;5012779;28;20076;-68
2022/06/02 01:02:11;;;;;;;3.95;3.60;;;13.20;70.30;;;;;;5012453;28;20029;-67
2022/06/02 01:04:41;;;;;;;3.35;2.75;;;13.30;70.00;;;;;;5012065;28;20518;-68
2022/06/02 01:07:52;;;;;;;2.95;2.75;;;13.30;70.30;;;;;;5011275;28;20076;-67
2022/06/02 01:10:24;;;;;;;6.82;3.50;;;13.50;70.40;;;;;;5006404;28;20037;-67
2022/06/02 01:13:28;;;;;;;4.97;3.70;;;13.50;71.10;;;;;;5011887;28;20040;-67
2022/06/02 01:16:18;;;;;;;4.65;4.13;;;13.50;72.10;;;;;;5010677;28;20026;-67
2022/06/02 01:18:58;;;;;;;4.30;3.35;;;13.50;71.60;;;;;;5011030;28;20049;-67
2022/06/02 01:21:35;;;;;;;3.65;3.05;;;13.50;71.90;;;;;;5012082;28;20030;-67
2022/06/02 01:24:19;;;;;;;3.97;3.50;;;13.50;72.30;;;;;;5010610;28;20029;-67
2022/06/02 01:27:15;;;;;;;4.55;3.25;;;13.50;72.90;;;;;;5011621;28;20051;-67
2022/06/02 01:30:06;;;;;;;6.10;4.30;;;13.50;72.90;;;;;;5011698;28;20487;-67
2022/06/02 01:32:47;;;;;;;9.80;4.80;;;13.50;74.30;;;;;;5011828;28;20041;-68
2022/06/02 01:35:29;;;;;;;9.18;4.85;;;13.40;76.30;;;;;;5010355;28;20030;-66
2022/06/02 01:38:00;;;;;;;7.00;4.35;;;13.10;77.30;;;;;;5011016;28;20029;-67
2022/06/02 01:40:41;;;;;;;6.88;3.92;;;13.00;78.40;;;;;;5010348;28;20097;-67
2022/06/02 01:43:44;;;;;;;4.90;3.23;;;12.90;78.70;;;;;;5011716;28;20029;-67
2022/06/02 01:46:23;;;;;;;5.00;3.38;;;12.70;77.00;;;;;;5009525;28;20547;-67
2022/06/02 01:49:04;;;;;;;3.65;3.00;;;12.70;77.10;;;;;;5010637;28;20030;-67
2022/06/02 01:51:54;;;;;;;3.97;3.47;;;12.60;77.50;;;;;;5010207;28;20062;-67
2022/06/02 01:54:47;;;;;;;5.15;3.08;;;12.50;79.30;;;;;;5011511;28;20026;-67
2022/06/02 01:57:48;;;;;;;3.42;3.13;;;12.50;78.70;;;;;;5010697;28;20395;-67
2022/06/02 02:00:22;;;;;;;5.57;3.50;;;12.50;78.40;;;;;;5011232;28;20029;-67
2022/06/02 02:02:51;;;;;;;4.80;3.47;;;;;;;;;;5010622;28;20066;-67
2022/06/02 02:05:23;;;;;;;4.18;3.75;;;;;;;;;;5015401;28;20087;-68
2022/06/02 02:07:55;;;;;;;6.50;3.90;;;;;;;;;;5014408;28;20088;-67
2022/06/02 02:10:24;;;;;;;3.42;3.15;;;;;;;;;;5015169;28;20029;-68
2022/06/02 02:12:53;;;;;;;6.25;4.15;;;;;;;;;;5014885;28;20030;-67
2022/06/02 02:15:31;;;;;;;4.07;3.67;;;;;;;;;;5015058;28;20025;-66
2022/06/02 02:18:06;;;;;;;5.00;4.55;;;;;;;;;;5012851;28;20542;-67
2022/06/02 02:20:38;;;;;;;5.05;4.18;;;;;;;;;;5015004;28;20072;-67
2022/06/02 02:23:07;;;;;;;5.78;4.80;;;;;;;;;;5013395;28;20030;-67
2022/06/02 02:25:43;;;;;;;5.70;4.72;;;;;;;;;;5014963;28;20081;-67
2022/06/02 02:28:15;;;;;;;6.20;5.10;;;;;;;;;;5013835;28;20030;-67
2022/06/02 02:30:44;;;;;;;12.68;5.35;;;;;;;;;;5013417;28;20544;-67
2022/06/02 02:33:29;;;;;;;4.32;3.92;;;;;;;;;;5014722;28;20080;-67
2022/06/02 02:36:01;;;;;;;5.32;4.78;;;;;;;;;;5015076;28;20030;-68
2022/06/02 02:38:45;;;;;;;5.22;4.68;;;;;;;;;;5013835;28;20018;-67
2022/06/02 02:41:15;;;;;;;6.28;4.80;;;;;;;;;;5014796;28;20113;-67
2022/06/02 02:44:17;;;;;;;5.18;4.65;;;;;;;;;;5013263;28;20034;-68
2022/06/02 02:46:58;;;;;;;6.78;4.68;;;;;;;;;;4992381;28;20057;-68
2022/06/02 02:49:35;;;;;;;6.05;4.95;;;;;;;;;;5011634;28;20049;-67
2022/06/02 02:52:05;;;;;;;7.05;5.20;;;;;;;;;;5013088;28;20034;-68
2022/06/02 02:54:49;;;;;;;5.68;5.18;;;;;;;;;;5014242;28;20033;-67
2022/06/02 02:57:45;;;;;;;7.10;5.47;;;;;;;;;;5013655;28;20480;-67
2022/06/02 03:00:20;;;;;;;6.45;5.30;;;;;;;;;;4978452;28;20128;-67
2022/06/02 03:02:57;;;;;;;6.00;5.50;;;;;;;;;;5013933;28;20071;-67
2022/06/02 03:05:26;;;;;;;26.85;16.60;;;;;;;;;;5012922;28;20484;-67
2022/06/02 03:07:52;;;;;;;93.47;52.53;;;;;;;;;;5011850;28;20476;-67
2022/06/02 03:10:18;;;;;;;303.13;160.45;;;;;;;;;;5013890;28;20040;-68
2022/06/02 03:12:55;;;;;;;51.53;28.58;;;;;;;;;;5013893;28;20077;-68
2022/06/02 03:15:24;;;;;;;33.45;19.67;;;;;;;;;;5013669;28;20022;-67
2022/06/02 03:17:53;;;;;;;8.15;6.28;;;;;;;;;;5013020;28;20071;-67
2022/06/02 03:20:25;;;;;;;51.38;25.20;;;;;;;;;;5013886;28;20034;-67
2022/06/02 03:22:57;;;;;;;49.28;23.50;;;;;;;;;;5013883;28;20030;-67
2022/06/02 03:25:42;;;;;;;38.58;18.75;;;;;;;;;;5013810;28;20068;-67
2022/06/02 03:28:13;;;;;;;6.50;5.30;;;;;;;;;;5012922;28;20034;-67
2022/06/02 03:30:42;;;;;;;6.50;5.25;;;;;;;;;;5013630;28;20073;-68
2022/06/02 03:33:32;;;;;;;8.18;5.57;;;;;;;;;;5012457;28;20066;-67
2022/06/02 03:36:11;;;;;;;7.32;4.32;;;;;;;;;;5013449;28;20026;-67
2022/06/02 03:38:37;;;;;;;3.75;2.85;;;;;;;;;;5012781;28;20550;-68
2022/06/02 03:41:21;;;;;;;4.35;2.97;;;;;;;;;;5013518;28;20034;-68
2022/06/02 03:44:06;;;;;;;6.00;2.90;;;;;;;;;;5013295;28;20486;-67
2022/06/02 03:46:32;;;;;;;3.55;3.17;;;;;;;;;;5013649;28;20084;-68
2022/06/02 03:49:00;;;;;;;7.68;4.50;;;;;;;;;;5012302;28;20034;-68
2022/06/02 03:51:33;;;;;;;6.32;3.00;;;;;;;;;;5013125;28;20018;-68
2022/06/02 03:54:08;;;;;;;4.30;2.70;;;;;;;;;;5013262;28;20076;-69
2022/06/02 03:56:40;;;;;;;14.75;2.25;;;;;;;;;;5013141;28;20052;-68
2022/06/02 03:59:25;;;;;;;3.67;2.00;;;;;;;;;;5011867;28;20026;-68
2022/06/02 04:01:57;;;;;;;4.18;2.08;;;;;;;;;;5012961;28;20123;-68
2022/06/02 04:04:29;;;;;;;3.10;2.58;;;;;;;;;;5013123;28;20105;-68
2022/06/02 04:06:58;;;;;;;2.15;1.75;;;;;;;;;;5012843;28;20033;-68
2022/06/02 04:09:27;;;;;;;2.85;1.77;;;;;;;;;;5012214;28;20025;-68
2022/06/02 04:14:59;;;;;;;1.75;1.60;;;;;;;;;;5012533;28;20091;-69
2022/06/02 04:17:43;;;;;;;1.73;1.23;;;;;;;;;;5011812;28;20049;-68
2022/06/02 04:20:36;;;;;;;3.35;1.67;;;;;;;;;;5011123;28;20026;-68
2022/06/02 04:23:11;;;;;;;2.03;1.73;;;;;;;;;;5010064;28;20091;-69
2022/06/02 04:26:03;;;;;;;1.73;1.15;;;;;;;;;;5009385;28;20045;-68
2022/06/02 04:28:29;;;;;;;6.28;1.90;;;;;;;;;;5005403;28;20066;-69
2022/06/02 04:31:13;;;;;;;1.25;1.13;;;;;;;;;;5012025;28;20077;-69
2022/06/02 04:33:52;;;;;;;2.08;1.30;;;;;;;;;;4993209;28;20106;-69
2022/06/02 04:36:39;;;;;;;7.53;1.80;;;;;;;;;;4997929;28;20068;-69
2022/06/02 04:39:05;;;;;;;2.95;1.40;;;;;;;;;;5011420;28;20017;-70
2022/06/02 04:41:34;;;;;;;1.77;1.58;;;;;;;;;;5012116;28;20056;-69
2022/06/02 04:44:12;;;;;;;1.55;1.10;;;;;;;;;;5010634;28;20029;-69
2022/06/02 04:46:52;;;;;;;1.70;1.60;;;;;;;;;;4992492;28;20030;-68
2022/06/02 04:49:18;;;;;;;2.47;1.70;;;;;;;;;;4991634;28;20129;-66
2022/06/02 04:52:06;;;;;;;4.78;1.67;;;;;;;;;;4991702;28;20109;-68
2022/06/02 04:54:40;;;;;;;2.47;2.10;;;;;;;;;;4990906;28;20034;-70
2022/06/02 04:57:24;;;;;;;1.35;1.25;;;;;;;;;;4991045;28;20476;-67
2022/06/02 05:00:02;;;;;;;2.10;1.90;;;;;;;;;;5001908;28;20025;-68
2022/06/02 05:02:28;;;;;;;1.83;1.70;;;;;;;;;;5011003;28;20022;-69
2022/06/02 05:04:54;;;;;;;4.68;1.65;;;;;;;;;;5008389;28;20018;-67
2022/06/02 05:07:32;;;;;;;3.05;2.28;;;;;;;;;;5004643;28;20103;-67
2022/06/02 05:10:19;;;;;;;2.13;1.92;;;;;;;;;;5008382;28;20171;-70
2022/06/02 05:13:04;;;;;;;2.72;2.00;;;;;;;;;;5009476;28;20499;-68
2022/06/02 05:15:43;;;;;;;2.53;1.80;;;;;;;;;;5009553;28;20033;-68
2022/06/02 05:18:28;;;;;;;2.47;2.13;;;;;;;;;;5009242;28;20030;-68
2022/06/02 05:21:08;;;;;;;3.85;1.95;;;;;;;;;;5011580;28;20022;-69
2022/06/02 05:23:44;;;;;;;2.50;2.15;;;;;;;;;;5009980;28;20034;-69
2022/06/02 05:26:28;;;;;;;2.40;2.20;;;;;;;;;;5011570;28;20502;-68
2022/06/02 05:28:54;;;;;;;7.35;2.25;;;;;;;;;;5010655;28;20502;-68
2022/06/02 05:31:39;;;;;;;2.15;1.95;;;;;;;;;;5010193;28;20080;-68
2022/06/02 05:34:23;;;;;;;2.80;2.40;;;;;;;;;;5009965;28;20461;-69
2022/06/02 05:36:52;;;;;;;2.80;2.03;;;;;;;;;;5011032;28;20061;-69
2022/06/02 05:39:37;;;;;;;6.05;2.58;;;;;;;;;;5013257;28;20026;-68
2022/06/02 05:42:22;;;;;;;4.45;2.10;;;;;;;;;;5015601;28;20033;-68
2022/06/02 05:44:54;;;;;;;2.80;2.47;;;;;;;;;;5015252;28;20026;-69
2022/06/02 05:47:38;;;;;;;2.38;2.10;;;;;;;;;;5014376;28;20414;-69
2022/06/02 05:50:06;;;;;;;2.85;2.20;;;;;;;;;;5013974;28;20030;-69
2022/06/02 05:52:44;;;;;;;2.20;1.90;;;;;;;;;;5015125;28;20476;-69
2022/06/02 05:55:15;;;;;;;4.15;2.30;;;;;;;;;;5015184;28;20025;-69
2022/06/02 05:57:47;;;;;;;2.25;2.05;;;;;;;;;;5013004;28;20026;-69
2022/06/02 06:00:36;;;;;;;2.97;2.40;;;;;;;;;;5015223;28;20026;-69
2022/06/02 06:03:10;;;;;;;6.38;2.28;;;;;;;;;;5015172;28;20030;-71
2022/06/02 06:05:42;;;;;;;2.00;1.80;;;;;;;;;;5014812;28;20037;-73
2022/06/02 06:08:18;;;;;;;3.03;2.58;;;;;;;;;;5011797;28;20024;-77
2022/06/02 06:10:50;;;;;;;2.83;2.38;;;;;;;;;;5015040;28;20030;-75
2022/06/02 06:13:16;;;;;;;5.40;3.83;;;;;;;;;;5015002;28;20432;-76
2022/06/02 06:15:42;;;;;;;5.63;4.18;;;;;;;;;;5014677;28;20057;-74
2022/06/02 06:18:17;;;;;;;4.50;2.78;;;;;;;;;;5013985;28;20018;-74
2022/06/02 06:20:46;;;;;;;4.72;3.33;;;;;;;;;;5013196;28;20026;-74
2022/06/02 06:23:13;;;;;;;12.88;9.05;;;;;;;;;;5014761;28;20518;-75
2022/06/02 06:25:39;;;;;;;5.35;4.47;;;;;;;;;;5014693;28;20177;-77
2022/06/02 06:28:11;;;;;;;4.55;4.05;;;;;;;;;;5016548;28;20104;-75
2022/06/02 06:30:43;;;;;;;6.38;3.72;;;;;;;;;;5032376;28;20021;-76
2022/06/02 06:33:34;;;;;;;6.47;4.80;;;31.10;25.90;;;;;;5033853;28;20037;-76
2022/06/02 06:36:12;;;;;;;6.90;4.78;;;31.20;26.70;;;;;;5032381;28;20049;-74
2022/06/02 06:39:02;;;;;;;6.65;4.72;;;31.40;26.40;;;;;;5032643;28;20017;-77
2022/06/02 06:41:52;;;;;;;7.17;5.53;;;31.90;25.60;;;;;;5024191;28;20022;-76
2022/06/02 06:44:24;;;;;;;6.85;4.88;;;32.00;25.20;;;;;;5030522;28;20029;-74
2022/06/02 06:47:04;;;;;;;11.52;7.20;;;31.00;26.10;;;;;;5033615;28;20022;-76
2022/06/02 06:50:10;;;;;;;10.02;6.20;;;31.00;25.90;;;;;;5032421;28;20045;-75
2022/06/02 06:52:55;;;;;;;14.63;10.07;;;32.10;24.80;;;;;;5033392;28;20380;-74
2022/06/02 06:55:39;;;;;;;3.00;1.83;;;32.80;23.90;;;;;;5033328;28;20108;-76
2022/06/02 06:58:51;;;;;;;9.25;7.00;;;32.00;24.40;;;;;;5036729;28;20075;-79
2022/06/02 07:01:32;;;;;;;15.00;7.65;;;29.90;27.30;;;;;;5012223;28;20383;-71
2022/06/02 07:04:09;;;;;;;3.10;2.03;;;29.30;27.90;;;;;;5033469;28;20022;-71
2022/06/02 07:07:01;;;;;;;2.47;1.75;;;29.50;28.50;;;;;;5033127;28;20025;-70
2022/06/02 07:09:50;;;;;;;3.83;1.83;;;30.70;26.30;;;;;;5032971;28;20364;-71
2022/06/02 07:15:10;;;;;;;3.40;3.05;;;31.90;25.30;;;;;;5027633;28;20033;-70
2022/06/02 07:17:54;;;;;;;6.38;2.33;;;32.40;24.40;;;;;;5023785;28;20385;-71
2022/06/02 07:20:30;;;;;;;3.10;2.10;;;32.50;24.30;;;;;;5032519;28;20045;-70
2022/06/02 07:23:14;;;;;;;3.35;1.83;;;32.80;23.50;;;;;;5033231;28;20028;-71
2022/06/02 07:26:17;;;;;;;2.45;1.67;;;32.20;23.50;;;;;;5031544;28;20029;-72
2022/06/02 07:29:00;;;;;;;6.90;3.72;;;32.50;23.90;;;;;;5012231;28;20065;-78
2022/06/02 07:31:50;;;;;;;4.20;2.70;;;31.00;25.40;;;;;;5034078;28;20049;-75
2022/06/02 07:34:53;;;;;;;4.25;2.92;;;29.70;27.20;;;;;;5016152;28;20022;-74
2022/06/02 07:37:49;;;;;;;2.47;1.95;;;29.70;27.10;;;;;;5005189;28;20428;-74
2022/06/02 07:40:21;;;;;;;2.40;1.30;;;29.30;26.80;;;;;;5031821;28;20017;-76
2022/06/02 07:42:55;;;;;;;6.50;3.60;;;28.90;27.50;;;;;;5000860;28;20030;-76
2022/06/02 07:45:31;;;;;;;2.28;1.52;;;29.90;27.20;;;;;;5009514;28;20017;-75
2022/06/02 07:48:29;;;;;;;4.53;2.75;;;29.80;26.20;;;;;;5035667;28;20064;-72
2022/06/02 07:50:58;;;;;;;150.50;116.57;;;29.50;26.90;;;;;;5032917;28;20057;-72
2022/06/02 07:53:42;;;;;;;23.40;14.25;;;27.70;29.00;;;;;;5033423;28;20470;-71
2022/06/02 07:56:31;;;;;;;7.95;5.72;;;26.20;31.30;;;;;;5033288;28;20104;-72
2022/06/02 07:59:29;;;;;;;5.82;4.18;;;27.60;31.20;;;;;;5032311;28;20117;-71
2022/06/02 08:02:27;;;;;;;16.48;10.88;;;29.60;27.50;;;;;;5032451;28;20025;-71
2022/06/02 08:05:19;;;;;;;18.00;13.07;;;29.80;26.70;;;;;;5034337;28;20087;-70
2022/06/02 08:07:50;;;;;;;23.67;16.55;;;29.20;27.20;;;;;;5031967;28;20021;-71
2022/06/02 08:10:19;;;;;;;30.10;21.88;;;28.60;29.20;;;;;;5034605;28;20079;-70
2022/06/02 08:12:56;;;;;;;2.30;2.10;;;29.50;29.20;;;;;;5035270;28;20029;-68
2022/06/02 08:15:48;;;;;;;9.00;5.20;;;29.80;26.10;;;;;;5033720;28;20055;-71
2022/06/02 08:18:48;;;;;;;169.63;127.13;;;30.40;26.90;;;;;;4996881;28;20484;-70
2022/06/02 08:21:45;;;;;;;7.70;5.95;;;31.30;25.00;;;;;;5005799;28;20033;-71
2022/06/02 08:24:25;;;;;;;9.85;7.32;;;31.30;25.50;;;;;;5032728;28;20029;-70
2022/06/02 08:26:57;;;;;;;27.27;20.10;;;30.40;26.10;;;;;;5032117;28;20061;-70
2022/06/02 08:29:56;;;;;;;9.73;7.25;;;30.20;27.00;;;;;;5031540;28;20483;-70
2022/06/02 08:32:52;;;;;;;9.90;7.18;;;30.40;25.50;;;;;;5031886;28;20100;-70
2022/06/02 08:36:00;;;;;;;8.57;7.10;;;29.70;27.20;;;;;;5004535;28;20108;-71
2022/06/02 08:38:46;;;;;;;7.18;3.22;;;30.30;25.60;;;;;;5027686;28;20025;-72
2022/06/02 08:41:39;;;;;;;23.42;16.90;;;30.90;25.10;;;;;;5003337;28;20025;-73
2022/06/02 08:44:26;;;;;;;9.85;7.63;;;31.00;27.40;;;;;;5031809;28;20560;-72
2022/06/02 08:47:01;;;;;;;2.13;1.23;;;31.30;24.20;;;;;;5031461;28;20033;-72
2022/06/02 08:49:51;;;;;;;4.53;2.22;;;31.60;23.80;;;;;;5030970;28;20080;-73
2022/06/02 08:52:41;;;;;;;3.28;2.78;;;31.40;24.30;;;;;;5031514;28;20025;-73
2022/06/02 08:55:49;;;;;;;11.80;8.57;;;31.00;24.90;;;;;;5001353;28;20024;-71
2022/06/02 08:58:49;;;;;;;8.85;6.50;;;30.70;25.20;;;;;;5030326;28;20573;-71
2022/06/02 09:01:42;;;;;;;5.05;3.47;;;29.80;26.20;;;;;;5003450;28;20491;-73
2022/06/02 09:04:17;;;;;;;14.40;10.32;;;28.90;27.30;;;;;;5031446;28;20514;-71
2022/06/02 09:06:53;;;;;;;11.88;8.10;;;28.00;28.10;;;;;;5031201;28;20021;-73
2022/06/02 09:09:56;;;;;;;7.15;2.60;;;27.70;30.50;;;;;;5028870;28;20104;-72
2022/06/02 09:12:46;;;;;;;6.57;5.03;;;28.40;28.70;;;;;;5030697;28;20378;-71
2022/06/02 09:15:50;;;;;;;1.30;1.20;;;29.30;27.70;;;;;;5003890;28;20375;-70
2022/06/02 09:18:34;;;;;;;50.72;44.88;;;;;;;;;;4982697;28;20037;-70
2022/06/02 09:21:14;;;;;;;5.97;4.63;;;27.20;29.10;;;;;;4999946;28;20083;-73
2022/06/02 09:24:04;;;;;;;14.10;11.02;;;26.70;29.90;;;;;;5031266;28;20034;-74
2022/06/02 09:26:41;;;;;;;17.73;13.43;;;27.60;30.80;;;;;;5029924;28;20033;-73
2022/06/02 09:29:19;;;;;;;20.95;16.88;;;28.50;28.20;;;;;;5000803;28;20033;-75
2022/06/02 09:31:56;;;;;;;12.13;9.95;;;28.70;27.00;;;;;;5031364;28;20056;-74
2022/06/02 09:34:33;;;;;;;15.88;12.90;;;29.00;26.60;;;;;;5031031;28;20017;-74
2022/06/02 09:36:59;;;;;;;21.40;17.25;;;29.00;26.10;;;;;;4990291;28;20066;-69
2022/06/02 09:39:51;;;;;;;24.05;17.92;;;28.80;28.40;;;;;;4989444;28;20073;-69
2022/06/02 09:42:22;;;;;;;9.95;6.15;;;29.20;26.30;;;;;;4990720;28;20034;-70
2022/06/02 09:45:03;;;;;;;12.38;7.88;;;28.40;27.70;;;;;;4991484;28;20457;-69
2022/06/02 09:47:29;;;;;;;17.55;4.65;;;27.90;28.20;;;;;;4990462;28;20038;-71
2022/06/02 09:50:10;;;;;;;1.95;1.65;;;27.10;28.70;;;;;;4991849;28;20038;-71
2022/06/02 09:52:54;;;;;;;;;;;27.20;29.30;;;;;;4992414;28;20058;-72
2022/06/02 09:55:37;;;;;;;1.23;1.10;;;26.80;29.90;;;;;;4990459;28;19910;-71
2022/06/02 09:58:21;;;;;;;1.75;1.52;;;26.10;30.40;;;;;;4991243;28;20030;-70
2022/06/02 10:00:56;;;;;;;3.03;2.22;;;26.40;30.90;;;;;;4990559;28;20032;-72
2022/06/02 10:03:59;;;;;;;1.80;1.30;;;26.40;30.00;;;;;;4991627;28;20073;-71
2022/06/02 10:07:02;;;;;;;4.65;1.55;;;26.60;30.10;;;;;;4991649;28;20034;-70
2022/06/02 10:09:54;;;;;;;4.07;2.15;;;26.40;30.10;;;;;;4990208;28;20106;-71
2022/06/02 10:15:41;;;;;;;3.90;2.13;;;25.00;32.40;;;;;;4991839;28;20033;-69
2022/06/02 10:18:25;;;;;;;4.00;2.75;;;24.70;32.10;;;;;;4990758;28;20081;-71
2022/06/02 10:21:13;;;;;;;2.28;1.73;;;24.70;32.60;;;;;;4990198;28;20026;-70
2022/06/02 10:24:14;;;;;;;3.40;1.92;;;24.90;32.80;;;;;;4991924;28;20053;-71
2022/06/02 10:27:01;;;;;;;2.20;1.90;;;24.90;32.50;;;;;;4995194;28;20058;-70
2022/06/02 10:29:45;;;;;;;2.75;2.08;;;24.80;32.40;;;;;;4994495;28;20050;-70
2022/06/02 10:32:40;;;;;;;3.00;2.70;;;24.80;32.70;;;;;;4995296;28;20081;-70
2022/06/02 10:35:34;;;;;;;2.50;1.92;;;24.70;33.10;;;;;;4993843;28;20026;-71
2022/06/02 10:38:18;;;;;;;3.42;2.28;;;24.40;34.00;;;;;;4994019;28;20496;-71
2022/06/02 10:41:15;;;;;;;3.47;2.25;;;23.60;35.20;;;;;;4994971;28;20058;-70
2022/06/02 10:44:08;;;;;;;2.70;2.10;;;23.40;35.20;;;;;;4994930;28;20085;-70
2022/06/02 10:46:34;;;;;;;2.85;2.28;;;23.00;35.60;;;;;;4994664;28;20113;-70
2022/06/02 10:49:20;;;;;;;1.40;1.10;;;23.00;35.00;;;;;;4994132;28;20129;-70
2022/06/02 10:52:13;;;;;;;2.15;1.85;;;22.80;34.70;;;;;;4994474;28;20034;-71
2022/06/02 10:55:04;;;;;;;1.75;1.40;;;22.10;36.20;;;;;;4994921;28;20050;-70
2022/06/02 10:57:50;;;;;;;2.30;1.10;;;22.10;35.90;;;;;;4993793;28;20022;-70
2022/06/02 11:00:44;;;;;;;3.50;2.00;;;22.30;36.60;;;;;;4993067;28;20022;-71
2022/06/02 11:03:31;;;;;;;3.42;2.10;;;22.30;37.40;;;;;;4994614;28;20022;-71
2022/06/02 11:06:22;;;;;;;4.35;1.50;;;22.30;37.00;;;;;;4994448;28;20030;-70
2022/06/02 11:09:15;;;;;;;4.60;1.83;;;22.20;36.90;;;;;;4994251;28;20034;-71
2022/06/02 11:12:13;;;;;;;2.53;1.50;;;22.40;37.40;;;;;;4994694;28;20496;-71
2022/06/02 11:14:58;;;;;;;1.63;1.30;;;22.50;37.00;;;;;;4994766;28;20098;-70
2022/06/02 11:17:36;;;;;;;2.80;1.15;;;22.70;36.30;;;;;;4993789;28;20037;-71
2022/06/02 11:20:20;;;;;;;3.10;1.35;;;22.80;35.60;;;;;;4994920;28;20137;-70
2022/06/02 11:23:23;;;;;;;3.22;1.38;;;22.60;33.80;;;;;;4994521;28;20029;-70
2022/06/02 11:26:07;;;;;;;2.90;1.40;;;22.30;35.00;;;;;;4994092;28;20578;-70
2022/06/02 11:28:39;;;;;;;4.50;1.40;;;22.20;36.30;;;;;;4993097;28;20422;-71
2022/06/02 11:31:27;;;;;;;2.63;1.77;;;22.10;37.00;;;;;;4993952;28;20026;-70
2022/06/02 11:34:08;;;;;;;3.67;1.40;;;22.00;38.30;;;;;;4993808;28;20477;-70
2022/06/02 11:36:55;;;;;;;1.42;1.33;;;22.30;37.20;;;;;;4994048;28;20025;-70
2022/06/02 11:39:38;;;;;;;3.05;1.45;;;22.40;36.10;;;;;;4991609;28;20048;-71
2022/06/02 11:42:16;;;;;;;1.67;1.55;;;22.50;36.90;;;;;;4993944;28;20037;-70
2022/06/02 11:45:09;;;;;;;1.67;1.20;;;22.70;36.30;;;;;;4993920;28;20026;-70
2022/06/02 11:48:29;;;;;;;1.88;1.33;;;23.00;35.60;;;;;;4992715;28;20147;-71
2022/06/02 11:51:33;;;;;;;1.17;1.02;;;23.10;33.90;;;;;;4971905;28;20488;-70
2022/06/02 11:54:52;;;;;;;1.33;1.08;;;22.50;35.40;;;;;;4993798;28;20092;-70
2022/06/02 11:57:23;;;;;;;2.67;2.03;;;22.40;34.90;;;;;;4970879;28;20113;-71
2022/06/02 12:00:27;;;;;;;1.70;1.27;;;22.40;37.00;;;;;;4971696;28;20055;-71
2022/06/02 12:03:23;;;;;;;1.52;1.30;;;22.50;36.90;;;;;;4970585;28;20033;-70
2022/06/02 12:06:06;;;;;;;2.25;1.80;;;21.70;37.10;;;;;;4993806;28;20023;-71
2022/06/02 12:08:43;;;;;;;3.08;1.70;;;21.50;38.10;;;;;;4992409;28;20029;-72
2022/06/02 12:11:28;;;;;;;1.40;1.30;;;21.60;37.80;;;;;;4993150;28;20058;-71
2022/06/02 12:14:16;;;;;;;3.85;1.85;;;21.70;38.10;;;;;;4993183;28;20126;-71
2022/06/02 12:16:52;;;;;;;2.08;1.38;;;21.70;38.50;;;;;;4993192;28;20501;-70
2022/06/02 12:19:42;;;;;;;1.50;1.33;;;21.50;38.50;;;;;;4992148;28;20026;-71
2022/06/02 12:22:25;;;;;;;1.67;1.30;;;21.80;37.90;;;;;;4993013;28;20018;-71
2022/06/02 12:25:05;;;;;;;1.70;1.60;;;22.00;37.40;;;;;;4992877;28;20030;-71
2022/06/02 12:27:49;;;;;;;2.33;1.75;;;21.40;39.90;;;;;;4991009;28;20436;-70
2022/06/02 12:30:37;;;;;;;4.68;1.83;;;21.50;39.50;;;;;;4992752;28;20033;-70
2022/06/02 12:33:09;;;;;;;2.85;1.27;;;21.60;39.20;;;;;;4993000;28;20454;-71
2022/06/02 12:35:50;;;;;;;4.13;1.40;;;21.60;38.50;;;;;;4992892;28;20049;-70
2022/06/02 12:38:46;;;;;;;3.97;1.70;;;21.30;39.40;;;;;;4991940;28;20417;-71
2022/06/02 12:41:27;;;;;;;1.60;1.50;;;21.20;39.80;;;;;;4992732;28;20172;-70
2022/06/02 12:44:02;;;;;;;;;;;21.30;38.90;;;;;;4993204;28;20476;-69
2022/06/02 12:46:36;;;;;;;5.88;1.30;;;20.80;39.20;;;;;;4990907;28;19913;-71
2022/06/02 12:49:29;;;;;;;4.28;1.45;;;20.70;40.40;;;;;;5015020;23;20069;-75
2022/06/02 12:52:33;;;;;;;4.97;1.38;;;20.70;39.90;;;;;;4994182;28;20026;-74
2022/06/02 12:55:33;;;;;;;2.05;1.30;;;20.80;40.50;;;;;;4994196;28;20102;-74
2022/06/02 12:58:21;;;;;;;5.07;1.55;;;21.10;39.70;;;;;;4992635;28;20026;-74
2022/06/02 13:01:12;;;;;;;3.20;1.33;;;21.00;39.70;;;;;;4991853;28;20112;-74
2022/06/02 13:03:46;;;;;;;2.47;1.83;;;21.00;38.00;;;;;;4992799;28;20026;-73
2022/06/02 13:06:27;;;;;;;1.45;1.20;;;21.10;39.10;;;;;;4993018;28;20050;-75
2022/06/02 13:09:13;;;;;;;2.08;1.60;;;21.30;38.60;;;;;;4991880;28;20441;-74
2022/06/02 13:12:12;;;;;;;3.15;1.63;;;21.20;39.20;;;;;;4992866;28;20026;-74
2022/06/02 13:15:16;;;;;;;1.92;1.38;;;21.00;39.40;;;;;;4992890;28;20089;-74
2022/06/02 13:18:13;;;;;;;1.52;1.30;;;20.90;39.10;;;;;;4992199;28;20019;-74
2022/06/02 13:21:16;;;;;;;2.28;1.40;;;21.00;39.20;;;;;;4992591;28;20033;-73
2022/06/02 13:24:02;;;;;;;2.25;1.48;;;21.20;38.20;;;;;;4992883;28;20014;-74
2022/06/02 13:26:39;;;;;;;1.52;1.33;;;21.30;39.50;;;;;;4993081;28;20014;-75
2022/06/02 13:29:20;;;;;;;2.85;2.03;;;21.40;39.00;;;;;;4992656;28;20077;-75
2022/06/02 13:31:49;;;;;;;2.13;1.70;;;21.00;38.90;;;;;;4993104;28;20513;-73
2022/06/02 13:34:38;;;;;;;2.10;1.15;;;20.60;39.70;;;;;;4995090;28;20512;-74
2022/06/02 13:37:23;;;;;;;3.30;1.40;;;20.60;39.60;;;;;;4998947;28;20038;-75
2022/06/02 13:40:19;;;;;;;2.90;1.90;;;20.70;39.80;;;;;;4997360;28;20023;-74
2022/06/02 13:42:45;;;;;;;1.60;1.50;;;20.90;39.60;;;;;;4993586;28;20031;-76
2022/06/02 13:45:48;;;;;;;1.67;1.58;;;21.00;38.80;;;;;;4992999;28;20031;-75
2022/06/02 13:48:38;;;;;;;1.52;1.42;;;20.80;39.40;;;;;;4982026;28;20054;-77
2022/06/02 13:51:35;;;;;;;1.60;1.27;;;20.60;38.50;;;;;;4977869;28;20075;-74
2022/06/02 13:57:30;;;;;;;1.95;1.30;;;20.30;39.80;;;;;;4973078;28;20088;-74
2022/06/02 14:00:07;;;;;;;1.63;1.52;;;20.30;40.00;;;;;;4974538;28;20443;-72
2022/06/02 14:02:39;;;;;;;2.17;1.65;;;20.20;40.80;;;;;;4976720;28;20026;-74
2022/06/02 14:05:04;;;;;;;1.65;1.55;;;20.40;40.60;;;;;;4976902;28;20027;-75
2022/06/02 14:07:49;;;;;;;2.85;1.58;;;20.60;39.70;;;;;;4976026;28;20102;-74
2022/06/02 14:10:29;;;;;;;3.58;1.65;;;20.70;39.70;;;;;;4976521;28;20086;-76
2022/06/02 14:13:13;;;;;;;4.68;1.38;;;20.80;39.80;;;;;;4977348;28;20081;-74
2022/06/02 14:16:08;;;;;;;1.75;1.48;;;20.90;39.40;;;;;;4977145;28;20069;-75
2022/06/02 14:18:48;;;;;;;1.65;1.55;;;21.00;38.70;;;;;;4976590;28;20426;-73
2022/06/02 14:21:39;;;;;;;1.65;1.50;;;21.00;38.70;;;;;;4977776;28;20031;-73
2022/06/02 14:24:13;;;;;;;1.50;1.40;;;20.70;38.60;;;;;;4977684;28;20038;-74
2022/06/02 14:27:06;;;;;;;1.50;1.40;;;20.50;39.30;;;;;;4977161;28;20097;-73
2022/06/02 14:29:45;;;;;;;2.38;1.30;;;20.50;39.10;;;;;;4975079;28;20034;-74
2022/06/02 14:32:27;;;;;;;2.88;1.20;;;20.50;39.30;;;;;;4976467;28;20030;-75
2022/06/02 14:35:04;;;;;;;1.83;1.13;;;20.60;38.70;;;;;;4977840;28;20023;-74
2022/06/02 14:38:00;;;;;;;1.58;1.48;;;20.70;39.30;;;;;;4976299;28;20126;-75
2022/06/02 14:40:53;;;;;;;4.03;1.60;;;20.80;37.60;;;;;;4973158;28;20041;-75
2022/06/02 14:43:56;;;;;;;2.70;1.20;;;20.80;37.80;;;;;;4976712;28;20057;-74
2022/06/02 14:46:54;;;;;;;2.45;1.33;;;20.40;38.10;;;;;;4976405;28;20022;-74
2022/06/02 14:49:34;;;;;;;1.55;1.25;;;20.40;39.50;;;;;;4973127;28;20043;-73
2022/06/02 14:52:12;;;;;;;1.20;1.10;;;20.50;39.50;;;;;;4978152;28;20042;-75
2022/06/02 14:54:55;;;;;;;1.38;1.15;;;20.60;39.70;;;;;;4981659;28;20130;-74
2022/06/02 14:57:52;;;;;;;1.83;1.17;;;20.70;38.50;;;;;;4991389;28;20077;-74
2022/06/02 15:00:41;;;;;;;2.88;1.50;;;20.50;38.80;;;;;;4994673;28;20030;-73